createdAt,value
2017-10-13T00:00:18.606Z,8.60
2017-10-13T00:03:20.686Z,8.60
2017-10-13T00:06:22.669Z,8.60
2017-10-13T00:09:24.657Z,8.60
2017-10-13T00:12:26.653Z,8.50
2017-10-13T00:15:29.351Z,8.50
2017-10-13T00:18:31.290Z,8.50
2017-10-13T00:21:33.237Z,8.50
2017-10-13T00:24:35.270Z,8.50
2017-10-13T00:27:38.090Z,8.40
2017-10-13T00:30:40.018Z,8.40
2017-10-13T00:33:41.985Z,8.40
2017-10-13T00:36:44.028Z,8.50
2017-10-13T00:39:46.843Z,8.50
2017-10-13T00:42:48.817Z,8.40
2017-10-13T00:45:50.786Z,8.50
2017-10-13T00:48:53.591Z,8.50
2017-10-13T00:51:55.658Z,8.50
2017-10-13T00:54:57.626Z,8.50
2017-10-13T00:57:59.626Z,8.60
2017-10-13T01:01:01.597Z,8.60
2017-10-13T01:04:03.607Z,8.70
2017-10-13T01:07:06.430Z,8.70
2017-10-13T01:10:08.381Z,8.70
2017-10-13T01:13:10.359Z,8.70
2017-10-13T01:16:12.301Z,8.80
2017-10-13T01:19:14.252Z,8.80
2017-10-13T01:22:16.223Z,8.90
2017-10-13T01:25:18.958Z,9.10
2017-10-13T01:28:21.645Z,9.10
2017-10-13T01:31:23.602Z,9.10
2017-10-13T01:34:26.311Z,9.30
2017-10-13T01:37:29.189Z,9.20
2017-10-13T01:40:31.142Z,9.30
2017-10-13T01:43:33.106Z,9.50
2017-10-13T01:46:35.169Z,9.50
2017-10-13T01:49:37.951Z,9.70
2017-10-13T01:52:39.973Z,9.70
2017-10-13T01:55:41.958Z,9.80
2017-10-13T01:58:43.910Z,9.90
2017-10-13T02:01:46.730Z,10.00
2017-10-13T02:04:48.677Z,9.90
2017-10-13T02:07:50.683Z,10.00
2017-10-13T02:10:53.425Z,9.90
2017-10-13T02:13:55.562Z,9.90
2017-10-13T02:16:58.271Z,9.80
2017-10-13T02:20:01.073Z,9.70
2017-10-13T02:23:03.790Z,9.60
2017-10-13T02:26:05.773Z,9.60
2017-10-13T02:29:07.831Z,9.50
2017-10-13T02:32:09.790Z,9.50
2017-10-13T02:35:11.750Z,9.40
2017-10-13T02:38:13.775Z,9.40
2017-10-13T02:41:15.725Z,9.40
2017-10-13T02:44:17.646Z,9.30
2017-10-13T02:47:20.382Z,9.20
2017-10-13T02:50:22.329Z,9.20
2017-10-13T02:53:25.167Z,9.20
2017-10-13T02:56:27.222Z,9.20
2017-10-13T02:59:29.935Z,9.30
2017-10-13T03:02:31.876Z,9.20
2017-10-13T03:05:33.866Z,9.30
2017-10-13T03:08:36.590Z,9.30
2017-10-13T03:11:38.673Z,9.30
2017-10-13T03:14:40.661Z,9.30
2017-10-13T03:17:42.614Z,9.20
2017-10-13T03:20:44.642Z,9.20
2017-10-13T03:23:46.903Z,9.10
2017-10-13T03:26:49.815Z,9.10
2017-10-13T03:29:52.566Z,9.00
2017-10-13T03:32:54.616Z,9.00
2017-10-13T03:35:56.667Z,9.00
2017-10-13T03:38:58.660Z,8.90
2017-10-13T03:42:02.338Z,8.90
2017-10-13T03:45:04.266Z,8.90
2017-10-13T03:48:06.981Z,8.80
2017-10-13T03:51:09.792Z,8.80
2017-10-13T03:54:11.738Z,8.70
2017-10-13T03:57:13.701Z,8.70
2017-10-13T04:00:15.649Z,8.70
2017-10-13T04:03:17.665Z,8.60
2017-10-13T04:06:19.613Z,8.60
2017-10-13T04:09:22.343Z,8.50
2017-10-13T04:12:24.378Z,8.50
2017-10-13T04:15:26.320Z,8.50
2017-10-13T04:18:28.271Z,8.60
2017-10-13T04:21:30.194Z,8.50
2017-10-13T04:24:32.295Z,8.50
2017-10-13T04:27:35.202Z,8.50
2017-10-13T04:30:37.995Z,8.50
2017-10-13T04:33:39.942Z,8.50
2017-10-13T04:36:41.987Z,8.50
2017-10-13T04:39:44.809Z,8.50
2017-10-13T04:42:46.886Z,8.50
2017-10-13T04:45:48.820Z,8.50
2017-10-13T04:48:50.846Z,8.50
2017-10-13T04:51:52.828Z,8.50
2017-10-13T04:54:54.814Z,8.40
2017-10-13T04:57:56.784Z,8.40
2017-10-13T05:01:00.298Z,8.30
2017-10-13T05:04:03.087Z,8.30
2017-10-13T05:07:05.062Z,8.30
2017-10-13T05:10:07.798Z,8.30
2017-10-13T05:13:09.856Z,8.30
2017-10-13T05:16:11.784Z,8.30
2017-10-13T05:19:13.725Z,8.30
2017-10-13T05:22:16.516Z,8.30
2017-10-13T05:25:18.614Z,8.30
2017-10-13T05:28:21.417Z,8.40
2017-10-13T05:31:24.150Z,8.50
2017-10-13T05:34:26.302Z,8.40
2017-10-13T05:37:29.101Z,8.60
2017-10-13T05:40:31.047Z,8.60
2017-10-13T05:43:33.081Z,8.60
2017-10-13T05:46:35.049Z,8.70
2017-10-13T05:49:37.841Z,8.70
2017-10-13T05:52:39.849Z,8.70
2017-10-13T05:55:42.726Z,8.80
2017-10-13T05:58:44.648Z,8.80
2017-10-13T06:01:46.697Z,8.80
2017-10-13T06:04:48.726Z,8.90
2017-10-13T06:07:50.674Z,8.90
2017-10-13T06:10:53.399Z,9.10
2017-10-13T06:13:55.440Z,9.00
2017-10-13T06:16:57.476Z,9.10
2017-10-13T06:19:59.529Z,9.20
2017-10-13T06:23:02.337Z,9.30
2017-10-13T06:26:05.042Z,9.40
2017-10-13T06:29:07.753Z,9.50
2017-10-13T06:32:09.716Z,9.50
2017-10-13T06:35:12.505Z,9.50
2017-10-13T06:38:15.730Z,9.50
2017-10-13T06:41:18.437Z,9.60
2017-10-13T06:44:21.246Z,9.70
2017-10-13T06:47:23.190Z,9.70
2017-10-13T06:50:26.741Z,9.80
2017-10-13T06:53:29.633Z,9.90
2017-10-13T06:56:32.425Z,10.00
2017-10-13T06:59:34.365Z,10.00
2017-10-13T07:02:36.395Z,10.10
2017-10-13T07:05:39.102Z,10.30
2017-10-13T07:08:41.822Z,10.40
2017-10-13T07:11:43.782Z,10.40
2017-10-13T07:14:46.526Z,10.60
2017-10-13T07:17:48.580Z,10.60
2017-10-13T07:20:51.359Z,10.80
2017-10-13T07:23:53.299Z,10.80
2017-10-13T07:26:55.357Z,10.90
2017-10-13T07:29:57.313Z,11.00
2017-10-13T07:33:00.058Z,11.30
2017-10-13T07:36:02.038Z,11.30
2017-10-13T07:39:04.077Z,11.40
2017-10-13T07:42:06.189Z,11.50
2017-10-13T07:45:08.916Z,11.80
2017-10-13T07:48:10.867Z,11.80
2017-10-13T07:51:13.612Z,12.10
2017-10-13T07:54:15.665Z,12.10
2017-10-13T07:57:17.781Z,12.20
2017-10-13T08:00:19.728Z,12.40
2017-10-13T08:03:21.741Z,12.60
2017-10-13T08:06:23.675Z,12.80
2017-10-13T08:09:26.470Z,13.20
2017-10-13T08:12:29.173Z,13.40
2017-10-13T08:15:31.994Z,13.70
2017-10-13T08:18:35.066Z,13.60
2017-10-13T08:21:37.121Z,13.90
2017-10-13T08:24:39.057Z,14.10
2017-10-13T08:27:41.770Z,14.40
2017-10-13T08:30:44.480Z,14.60
2017-10-13T08:33:46.533Z,14.60
2017-10-13T08:36:49.238Z,15.00
2017-10-13T08:39:52.044Z,15.20
2017-10-13T08:42:54.760Z,15.40
2017-10-13T08:45:56.715Z,15.30
2017-10-13T08:48:59.518Z,15.80
2017-10-13T08:52:02.358Z,15.90
2017-10-13T08:55:04.302Z,15.90
2017-10-13T08:58:06.288Z,16.10
2017-10-13T09:01:08.290Z,16.30
2017-10-13T09:04:10.341Z,16.70
2017-10-13T09:07:12.298Z,17.10
2017-10-13T09:10:14.330Z,17.30
2017-10-13T09:13:17.156Z,18.30
2017-10-13T09:16:19.271Z,18.20
2017-10-13T09:19:21.382Z,18.70
2017-10-13T09:22:23.422Z,18.90
2017-10-13T09:25:26.238Z,19.10
2017-10-13T09:28:28.194Z,18.90
2017-10-13T09:31:30.889Z,18.60
2017-10-13T09:34:33.632Z,18.40
2017-10-13T09:37:35.726Z,18.40
2017-10-13T09:40:38.071Z,18.70
2017-10-13T09:43:40.952Z,19.30
2017-10-13T09:46:42.945Z,19.30
2017-10-13T09:49:44.905Z,20.00
2017-10-13T09:52:46.941Z,20.20
2017-10-13T09:55:48.925Z,20.00
2017-10-13T09:58:51.004Z,19.50
2017-10-13T10:01:53.698Z,18.50
2017-10-13T10:04:56.435Z,18.10
2017-10-13T10:07:58.474Z,18.10
2017-10-13T10:11:00.450Z,18.00
2017-10-13T10:14:03.282Z,18.60
2017-10-13T10:17:05.270Z,18.60
2017-10-13T10:20:07.241Z,18.70
2017-10-13T10:23:10.029Z,18.80
2017-10-13T10:26:11.950Z,18.80
2017-10-13T10:29:13.978Z,19.60
2017-10-13T10:32:15.911Z,20.80
2017-10-13T10:35:17.922Z,22.10
2017-10-13T10:38:19.961Z,22.90
2017-10-13T10:41:22.745Z,24.40
2017-10-13T10:44:24.768Z,24.40
2017-10-13T10:47:26.748Z,25.50
2017-10-13T10:50:28.766Z,26.00
2017-10-13T10:53:30.708Z,27.00
2017-10-13T10:56:32.654Z,28.30
2017-10-13T10:59:34.651Z,28.80
2017-10-13T11:02:37.450Z,27.70
2017-10-13T11:05:40.249Z,27.50
2017-10-13T11:08:42.195Z,27.50
2017-10-13T11:11:44.253Z,27.50
2017-10-13T11:14:46.230Z,27.30
2017-10-13T11:17:48.181Z,26.90
2017-10-13T11:20:50.905Z,27.10
2017-10-13T11:23:53.694Z,27.40
2017-10-13T11:26:56.405Z,27.90
2017-10-13T11:29:59.140Z,27.70
2017-10-13T11:33:01.186Z,27.70
2017-10-13T11:36:03.992Z,28.00
2017-10-13T11:39:05.968Z,28.00
2017-10-13T11:42:08.688Z,26.70
2017-10-13T11:45:10.668Z,26.70
2017-10-13T11:48:12.733Z,25.90
2017-10-13T11:51:15.449Z,25.60
2017-10-13T11:54:17.530Z,25.60
2017-10-13T11:57:20.326Z,26.40
2017-10-13T12:00:22.289Z,26.40
2017-10-13T12:03:24.302Z,26.00
2017-10-13T12:06:27.453Z,25.60
2017-10-13T12:09:29.686Z,25.00
2017-10-13T12:12:32.485Z,25.20
2017-10-13T12:15:35.291Z,24.80
2017-10-13T12:18:38.126Z,24.70
2017-10-13T12:21:40.106Z,24.70
2017-10-13T12:24:42.081Z,24.80
2017-10-13T12:27:44.013Z,25.10
2017-10-13T12:30:46.002Z,25.70
2017-10-13T12:33:47.993Z,26.00
2017-10-13T12:36:49.974Z,26.00
2017-10-13T12:39:51.913Z,26.10
2017-10-13T12:42:53.974Z,26.60
2017-10-13T12:45:56.143Z,26.80
2017-10-13T12:48:58.885Z,25.60
2017-10-13T12:52:00.837Z,25.60
2017-10-13T12:55:03.645Z,24.90
2017-10-13T12:58:05.606Z,24.90
2017-10-13T13:01:07.585Z,25.40
2017-10-13T13:04:09.782Z,25.60
2017-10-13T13:07:12.583Z,25.60
2017-10-13T13:10:15.697Z,25.70
2017-10-13T13:13:19.324Z,25.80
2017-10-13T13:16:22.149Z,25.30
2017-10-13T13:19:24.151Z,25.20
2017-10-13T13:22:26.198Z,24.70
2017-10-13T13:25:28.265Z,23.90
2017-10-13T13:28:31.093Z,23.30
2017-10-13T13:31:33.074Z,23.20
2017-10-13T13:34:35.058Z,23.60
2017-10-13T13:37:37.050Z,24.70
2017-10-13T13:40:38.993Z,26.40
2017-10-13T13:43:40.982Z,27.70
2017-10-13T13:46:42.910Z,28.70
2017-10-13T13:49:44.964Z,29.10
2017-10-13T13:52:47.761Z,29.90
2017-10-13T13:55:50.583Z,30.30
2017-10-13T13:58:53.459Z,30.20
2017-10-13T14:01:55.459Z,30.30
2017-10-13T14:04:58.269Z,28.90
2017-10-13T14:08:00.332Z,28.80
2017-10-13T14:11:03.076Z,25.70
2017-10-13T14:14:05.117Z,25.70
2017-10-13T14:17:07.422Z,24.30
2017-10-13T14:20:10.162Z,23.00
2017-10-13T14:23:12.124Z,23.00
2017-10-13T14:26:14.078Z,23.30
2017-10-13T14:29:17.805Z,22.70
2017-10-13T14:32:20.619Z,22.00
2017-10-13T14:35:22.574Z,22.00
2017-10-13T14:38:26.091Z,20.70
2017-10-13T14:41:28.814Z,20.20
2017-10-13T14:44:30.901Z,20.20
2017-10-13T14:47:32.875Z,19.90
2017-10-13T14:50:35.595Z,19.60
2017-10-13T14:53:37.762Z,19.60
2017-10-13T14:56:40.568Z,19.50
2017-10-13T14:59:43.385Z,19.30
2017-10-13T15:02:45.339Z,19.30
2017-10-13T15:05:48.770Z,19.00
2017-10-13T15:08:51.522Z,18.90
2017-10-13T15:11:53.537Z,18.80
2017-10-13T15:14:57.057Z,18.50
2017-10-13T15:17:59.898Z,18.40
2017-10-13T15:21:02.672Z,18.40
2017-10-13T15:24:05.400Z,18.10
2017-10-13T15:27:07.451Z,18.10
2017-10-13T15:30:09.449Z,18.10
2017-10-13T15:33:12.292Z,17.90
2017-10-13T15:36:14.248Z,17.80
2017-10-13T15:39:16.422Z,17.80
2017-10-13T15:42:20.023Z,17.60
2017-10-13T15:45:22.133Z,17.60
2017-10-13T15:48:24.103Z,17.50
2017-10-13T15:51:26.917Z,17.30
2017-10-13T15:54:28.868Z,17.30
2017-10-13T15:57:30.902Z,17.20
2017-10-13T16:00:32.914Z,17.20
2017-10-13T16:03:34.960Z,17.20
2017-10-13T16:06:36.936Z,17.10
2017-10-13T16:09:39.678Z,17.00
2017-10-13T16:12:41.728Z,17.00
2017-10-13T16:15:44.861Z,16.90
2017-10-13T16:18:46.793Z,16.80
2017-10-13T16:21:48.781Z,16.80
2017-10-13T16:24:50.774Z,16.70
2017-10-13T16:27:53.558Z,16.60
2017-10-13T16:30:55.578Z,16.60
2017-10-13T16:33:57.654Z,16.60
2017-10-13T16:36:59.902Z,16.50
2017-10-13T16:40:01.937Z,16.50
2017-10-13T16:43:03.891Z,16.40
2017-10-13T16:46:06.717Z,16.20
2017-10-13T16:49:08.672Z,16.20
2017-10-13T16:52:10.667Z,16.10
2017-10-13T16:55:13.478Z,15.90
2017-10-13T16:58:15.482Z,15.90
2017-10-13T17:01:17.423Z,15.80
2017-10-13T17:04:20.238Z,15.70
2017-10-13T17:07:23.723Z,15.60
2017-10-13T17:10:25.694Z,15.60
2017-10-13T17:13:27.757Z,15.60
2017-10-13T17:16:29.799Z,15.50
2017-10-13T17:19:31.737Z,15.60
2017-10-13T17:22:34.444Z,15.60
2017-10-13T17:25:36.366Z,15.70
2017-10-13T17:28:39.199Z,15.70
2017-10-13T17:31:41.146Z,15.70
2017-10-13T17:34:44.161Z,15.80
2017-10-13T17:37:46.973Z,15.80
2017-10-13T17:40:49.970Z,15.80
2017-10-13T17:43:51.952Z,15.80
2017-10-13T17:46:54.988Z,15.90
2017-10-13T17:49:56.949Z,15.90
2017-10-13T17:52:59.846Z,15.90
2017-10-13T17:56:01.826Z,15.90
2017-10-13T17:59:05.253Z,15.90
2017-10-13T18:02:07.979Z,15.90
2017-10-13T18:05:10.052Z,16.00
2017-10-13T18:08:12.102Z,16.00
2017-10-13T18:11:15.674Z,15.90
2017-10-13T18:14:17.838Z,16.00
2017-10-13T18:17:20.942Z,16.00
2017-10-13T18:20:22.991Z,16.00
2017-10-13T18:23:25.426Z,16.00
2017-10-13T18:26:28.334Z,16.00
2017-10-13T18:29:31.723Z,16.00
2017-10-13T18:32:33.686Z,16.00
2017-10-13T18:35:36.035Z,16.00
2017-10-13T18:38:38.846Z,16.00
2017-10-13T18:41:40.892Z,16.00
2017-10-13T18:44:43.617Z,16.00
2017-10-13T18:47:46.512Z,16.10
2017-10-13T18:50:49.207Z,16.10
2017-10-13T18:53:51.194Z,16.00
2017-10-13T18:56:54.933Z,16.10
2017-10-13T18:59:57.311Z,16.00
2017-10-13T19:03:00.133Z,16.10
2017-10-13T19:06:02.201Z,16.10
2017-10-13T19:09:04.906Z,16.10
2017-10-13T19:12:06.910Z,16.10
2017-10-13T19:15:08.868Z,16.10
2017-10-13T19:18:11.601Z,16.20
2017-10-13T19:21:13.541Z,16.20
2017-10-13T19:24:15.522Z,16.20
2017-10-13T19:27:17.485Z,16.20
2017-10-13T19:30:19.841Z,16.20
2017-10-13T19:33:21.794Z,16.20
2017-10-13T19:36:24.595Z,16.20
2017-10-13T19:39:27.427Z,16.20
2017-10-13T19:42:29.466Z,16.10
2017-10-13T19:45:31.464Z,16.20
2017-10-13T19:48:33.441Z,16.20
2017-10-13T19:51:35.422Z,16.20
2017-10-13T19:54:37.446Z,16.20
2017-10-13T19:57:39.434Z,16.20
2017-10-13T20:00:41.543Z,16.20
2017-10-13T20:03:43.628Z,16.20
2017-10-13T20:06:45.590Z,16.20
2017-10-13T20:09:48.362Z,16.20
2017-10-13T20:12:51.114Z,16.20
2017-10-13T20:15:53.160Z,16.20
2017-10-13T20:18:55.242Z,16.20
2017-10-13T20:21:58.040Z,16.20
2017-10-13T20:25:01.174Z,16.20
2017-10-13T20:28:03.145Z,16.20
2017-10-13T20:31:06.174Z,16.20
2017-10-13T20:34:08.148Z,16.20
2017-10-13T20:37:10.530Z,16.20
2017-10-13T20:40:12.621Z,16.20
2017-10-13T20:43:14.606Z,16.20
2017-10-13T20:46:16.662Z,16.20
2017-10-13T20:49:18.938Z,16.20
2017-10-13T20:52:21.598Z,16.20
2017-10-13T20:55:23.641Z,16.20
2017-10-13T20:58:26.338Z,16.10
2017-10-13T21:01:28.307Z,16.10
2017-10-13T21:04:30.242Z,16.10
2017-10-13T21:07:32.607Z,16.10
2017-10-13T21:10:35.314Z,16.10
2017-10-13T21:13:38.339Z,16.10
2017-10-13T21:16:40.292Z,16.10
2017-10-13T21:19:42.409Z,16.10
2017-10-13T21:22:44.364Z,16.10
2017-10-13T21:25:47.498Z,16.00
2017-10-13T21:28:49.478Z,16.00
2017-10-13T21:31:51.845Z,16.00
2017-10-13T21:34:53.801Z,16.00
2017-10-13T21:37:55.815Z,16.00
2017-10-13T21:40:58.634Z,16.00
2017-10-13T21:44:00.745Z,15.90
2017-10-13T21:47:03.158Z,15.90
2017-10-13T21:50:05.174Z,16.00
2017-10-13T21:53:07.187Z,16.00
2017-10-13T21:56:09.555Z,16.00
2017-10-13T21:59:12.266Z,16.00
2017-10-13T22:02:15.402Z,16.00
2017-10-13T22:05:17.346Z,16.00
2017-10-13T22:08:20.453Z,16.00
2017-10-13T22:11:22.516Z,16.00
2017-10-13T22:14:24.861Z,16.00
2017-10-13T22:17:26.811Z,16.00
2017-10-13T22:20:28.835Z,16.10
2017-10-13T22:23:30.765Z,16.10
2017-10-13T22:26:32.765Z,16.20
2017-10-13T22:29:35.594Z,16.20
2017-10-13T22:32:37.633Z,16.20
2017-10-13T22:35:39.686Z,16.20
2017-10-13T22:38:41.760Z,16.30
2017-10-13T22:41:43.874Z,16.20
2017-10-13T22:44:45.992Z,16.20
2017-10-13T22:47:48.015Z,16.20
2017-10-13T22:50:50.192Z,16.30
2017-10-13T22:53:52.974Z,16.30
2017-10-13T22:56:55.255Z,16.30
2017-10-13T22:59:57.277Z,16.30
2017-10-13T23:02:59.257Z,16.30
2017-10-13T23:06:01.198Z,16.30
2017-10-13T23:09:03.153Z,16.40
2017-10-13T23:12:05.092Z,16.40
2017-10-13T23:15:07.915Z,16.40
2017-10-13T23:18:09.841Z,16.30
2017-10-13T23:21:12.158Z,16.40
2017-10-13T23:24:14.990Z,16.40
2017-10-13T23:27:17.407Z,16.30
2017-10-13T23:30:19.364Z,16.40
2017-10-13T23:33:21.725Z,16.40
2017-10-13T23:36:25.167Z,16.40
2017-10-13T23:39:28.225Z,16.40
2017-10-13T23:42:30.266Z,16.30
2017-10-13T23:45:32.313Z,16.40
2017-10-13T23:48:34.277Z,16.40
2017-10-13T23:51:36.269Z,16.40
2017-10-13T23:54:38.310Z,16.30
2017-10-13T23:57:40.702Z,16.30
